createdAt,value
2018-01-30T00:01:03.601Z,49.10
2018-01-30T00:03:07.829Z,49.10
2018-01-30T00:05:11.193Z,49.10
2018-01-30T00:07:15.326Z,49.10
2018-01-30T00:09:18.682Z,49.10
2018-01-30T00:11:22.822Z,49.20
2018-01-30T00:13:26.189Z,49.10
2018-01-30T00:15:30.311Z,49.20
2018-01-30T00:17:34.432Z,49.10
2018-01-30T00:19:37.583Z,49.10
2018-01-30T00:21:40.954Z,49.10
2018-01-30T00:23:44.302Z,49.10
2018-01-30T00:25:47.672Z,49.10
2018-01-30T00:27:51.808Z,49.20
2018-01-30T00:29:55.201Z,49.20
2018-01-30T00:31:58.545Z,49.20
2018-01-30T00:34:01.921Z,49.20
2018-01-30T00:36:05.282Z,49.20
2018-01-30T00:38:08.652Z,49.10
2018-01-30T00:40:12.804Z,49.10
2018-01-30T00:42:16.194Z,49.10
2018-01-30T00:44:19.559Z,49.10
2018-01-30T00:46:22.913Z,49.10
2018-01-30T00:48:26.272Z,49.10
2018-01-30T00:50:29.669Z,48.70
2018-01-30T00:52:33.039Z,49.10
2018-01-30T00:54:36.416Z,49.20
2018-01-30T00:56:39.774Z,49.20
2018-01-30T00:58:43.132Z,49.20
2018-01-30T01:00:46.540Z,49.20
2018-01-30T01:02:49.910Z,49.20
2018-01-30T01:04:53.278Z,49.10
2018-01-30T01:06:56.746Z,49.10
2018-01-30T01:09:00.877Z,49.10
2018-01-30T01:11:04.282Z,49.10
2018-01-30T01:13:07.638Z,49.20
2018-01-30T01:15:10.999Z,49.10
2018-01-30T01:17:14.370Z,49.20
2018-01-30T01:19:17.750Z,49.20
2018-01-30T01:21:21.162Z,49.20
2018-01-30T01:23:24.689Z,49.20
2018-01-30T01:25:28.054Z,49.20
2018-01-30T01:27:31.455Z,49.20
2018-01-30T01:29:35.066Z,49.20
2018-01-30T01:31:38.460Z,49.20
2018-01-30T01:33:41.833Z,49.10
2018-01-30T01:35:45.202Z,49.20
2018-01-30T01:37:48.564Z,49.10
2018-01-30T01:39:52.704Z,49.10
2018-01-30T01:41:56.093Z,49.10
2018-01-30T01:43:59.462Z,49.10
2018-01-30T01:46:03.602Z,49.20
2018-01-30T01:48:06.961Z,49.20
2018-01-30T01:50:10.326Z,49.10
2018-01-30T01:52:14.466Z,49.70
2018-01-30T01:54:17.878Z,49.10
2018-01-30T01:56:21.243Z,49.20
2018-01-30T01:58:25.361Z,49.20
2018-01-30T02:00:28.717Z,49.10
2018-01-30T02:02:32.079Z,49.20
2018-01-30T02:04:35.513Z,49.20
2018-01-30T02:06:39.661Z,49.10
2018-01-30T02:08:43.047Z,49.10
2018-01-30T02:10:46.405Z,49.10
2018-01-30T02:12:49.756Z,49.10
2018-01-30T02:14:53.132Z,49.10
2018-01-30T02:16:56.496Z,49.10
2018-01-30T02:19:00.633Z,49.10
2018-01-30T02:21:03.996Z,49.10
2018-01-30T02:23:08.135Z,49.10
2018-01-30T02:25:11.499Z,49.10
2018-01-30T02:27:15.634Z,49.10
2018-01-30T02:29:18.991Z,49.10
2018-01-30T02:31:22.337Z,49.10
2018-01-30T02:33:25.689Z,49.10
2018-01-30T02:35:29.054Z,49.10
2018-01-30T02:37:32.415Z,49.10
2018-01-30T02:39:35.800Z,49.10
2018-01-30T02:41:39.153Z,49.10
2018-01-30T02:43:43.279Z,49.00
2018-01-30T02:45:46.637Z,49.00
2018-01-30T02:47:50.045Z,49.00
2018-01-30T02:49:54.202Z,49.00
2018-01-30T02:51:57.569Z,49.00
2018-01-30T02:54:00.924Z,49.00
2018-01-30T02:56:04.278Z,49.00
2018-01-30T02:58:07.641Z,49.10
2018-01-30T03:00:11.012Z,49.10
2018-01-30T03:02:15.141Z,49.10
2018-01-30T03:04:18.508Z,49.10
2018-01-30T03:06:22.637Z,49.10
2018-01-30T03:08:26.029Z,49.00
2018-01-30T03:10:29.407Z,49.10
2018-01-30T03:12:33.572Z,49.00
2018-01-30T03:14:37.114Z,49.00
2018-01-30T03:16:41.242Z,49.00
2018-01-30T03:18:44.601Z,49.00
2018-01-30T03:20:47.978Z,49.00
2018-01-30T03:22:51.331Z,49.00
2018-01-30T03:24:54.694Z,49.00
2018-01-30T03:26:58.818Z,49.00
2018-01-30T03:29:02.179Z,49.00
2018-01-30T03:31:05.543Z,49.00
2018-01-30T03:33:08.914Z,49.00
2018-01-30T03:35:12.277Z,49.00
2018-01-30T03:37:15.634Z,49.00
2018-01-30T03:39:18.991Z,49.00
2018-01-30T03:41:22.396Z,49.00
2018-01-30T03:43:25.765Z,49.00
2018-01-30T03:45:29.143Z,49.00
2018-01-30T03:47:32.508Z,49.00
2018-01-30T03:49:36.646Z,49.00
2018-01-30T03:51:40.055Z,48.90
2018-01-30T03:53:43.420Z,48.90
2018-01-30T03:55:47.549Z,49.00
2018-01-30T03:57:50.912Z,49.00
2018-01-30T03:59:55.052Z,48.90
2018-01-30T04:01:58.423Z,49.00
2018-01-30T04:04:01.786Z,48.90
2018-01-30T04:06:05.159Z,49.00
2018-01-30T04:08:08.523Z,48.90
2018-01-30T04:10:11.875Z,49.00
2018-01-30T04:12:15.998Z,48.90
2018-01-30T04:14:19.360Z,48.90
2018-01-30T04:16:22.711Z,48.80
2018-01-30T04:18:26.103Z,48.90
2018-01-30T04:20:29.489Z,48.80
2018-01-30T04:22:32.836Z,48.70
2018-01-30T04:24:36.189Z,48.70
2018-01-30T04:26:39.547Z,48.50
2018-01-30T04:28:42.939Z,48.30
2018-01-30T04:30:46.317Z,48.30
2018-01-30T04:32:49.677Z,48.00
2018-01-30T04:34:53.045Z,47.90
2018-01-30T04:36:56.407Z,47.60
2018-01-30T04:39:00.136Z,47.40
2018-01-30T04:41:03.557Z,47.20
2018-01-30T04:43:06.975Z,47.00
2018-01-30T04:45:11.115Z,46.70
2018-01-30T04:47:14.508Z,46.70
2018-01-30T04:49:17.879Z,46.50
2018-01-30T04:51:22.009Z,46.20
2018-01-30T04:53:25.378Z,46.20
2018-01-30T04:55:28.797Z,46.00
2018-01-30T04:57:32.157Z,45.80
2018-01-30T04:59:36.274Z,45.90
2018-01-30T05:01:40.575Z,45.50
2018-01-30T05:03:43.965Z,45.50
2018-01-30T05:05:47.322Z,45.30
2018-01-30T05:07:50.693Z,45.30
2018-01-30T05:09:54.109Z,45.20
2018-01-30T05:11:57.537Z,45.10
2018-01-30T05:14:01.664Z,45.60
2018-01-30T05:16:05.039Z,45.00
2018-01-30T05:18:09.176Z,44.80
2018-01-30T05:20:12.537Z,44.80
2018-01-30T05:22:16.693Z,44.70
2018-01-30T05:24:20.058Z,44.70
2018-01-30T05:26:23.434Z,44.80
2018-01-30T05:28:27.568Z,44.70
2018-01-30T05:30:30.941Z,44.70
2018-01-30T05:32:35.066Z,44.50
2018-01-30T05:34:38.430Z,44.50
2018-01-30T05:36:41.813Z,44.30
2018-01-30T05:38:45.178Z,44.10
2018-01-30T05:40:48.537Z,44.10
2018-01-30T05:42:51.885Z,44.10
2018-01-30T05:44:55.259Z,44.10
2018-01-30T05:46:58.647Z,44.10
2018-01-30T05:49:02.013Z,44.10
2018-01-30T05:51:06.149Z,44.20
2018-01-30T05:53:09.564Z,44.20
2018-01-30T05:55:12.933Z,44.30
2018-01-30T05:57:16.607Z,44.40
2018-01-30T05:59:19.979Z,44.40
2018-01-30T06:01:24.110Z,44.80
2018-01-30T06:03:27.461Z,44.80
2018-01-30T06:05:30.824Z,44.90
2018-01-30T06:07:34.981Z,45.20
2018-01-30T06:09:38.339Z,45.60
2018-01-30T06:11:41.742Z,45.30
2018-01-30T06:13:45.086Z,45.50
2018-01-30T06:15:48.432Z,45.60
2018-01-30T06:17:51.614Z,45.80
2018-01-30T06:19:54.967Z,45.90
2018-01-30T06:21:58.313Z,46.10
2018-01-30T06:24:02.509Z,46.40
2018-01-30T06:26:05.953Z,46.40
2018-01-30T06:28:09.159Z,46.50
2018-01-30T06:30:12.992Z,46.60
2018-01-30T06:32:16.416Z,46.80
2018-01-30T06:34:19.939Z,46.90
2018-01-30T06:36:23.448Z,47.00
2018-01-30T06:38:26.806Z,47.10
2018-01-30T06:40:30.174Z,47.10
2018-01-30T06:42:34.298Z,47.30
2018-01-30T06:44:37.653Z,47.30
2018-01-30T06:46:41.071Z,47.40
2018-01-30T06:48:45.232Z,47.50
2018-01-30T06:50:49.365Z,47.60
2018-01-30T06:52:52.741Z,47.50
2018-01-30T06:54:56.104Z,47.60
2018-01-30T06:56:59.482Z,47.60
2018-01-30T06:59:02.876Z,47.60
2018-01-30T07:01:06.244Z,47.60
2018-01-30T07:03:10.364Z,47.70
2018-01-30T07:05:14.485Z,47.60
2018-01-30T07:07:17.856Z,47.60
2018-01-30T07:09:22.011Z,47.70
2018-01-30T07:11:25.377Z,47.70
2018-01-30T07:13:28.729Z,47.70
2018-01-30T07:15:32.110Z,47.70
2018-01-30T07:17:35.468Z,47.40
2018-01-30T07:19:38.829Z,47.80
2018-01-30T07:21:42.947Z,47.90
2018-01-30T07:23:47.064Z,47.80
2018-01-30T07:25:51.195Z,47.80
2018-01-30T07:27:54.571Z,47.80
2018-01-30T07:29:57.938Z,47.80
2018-01-30T07:32:02.223Z,47.90
2018-01-30T07:34:05.618Z,47.90
2018-01-30T07:36:08.993Z,48.00
2018-01-30T07:38:12.371Z,48.10
2018-01-30T07:40:15.733Z,48.10
2018-01-30T07:42:19.091Z,48.10
2018-01-30T07:44:22.464Z,48.10
2018-01-30T07:46:25.819Z,48.10
2018-01-30T07:48:29.172Z,47.90
2018-01-30T07:50:32.524Z,47.80
2018-01-30T07:52:36.668Z,47.50
2018-01-30T07:54:40.033Z,48.00
2018-01-30T07:56:43.394Z,47.30
2018-01-30T07:58:46.761Z,47.20
2018-01-30T08:00:50.871Z,46.80
2018-01-30T08:02:55.007Z,46.60
2018-01-30T08:04:58.369Z,46.60
2018-01-30T08:07:02.599Z,46.90
2018-01-30T08:09:05.512Z,46.30
2018-01-30T08:11:08.897Z,46.10
2018-01-30T08:13:12.254Z,46.00
2018-01-30T08:15:15.612Z,45.90
2018-01-30T08:17:20.986Z,45.80
2018-01-30T08:19:25.119Z,45.50
2018-01-30T08:21:28.486Z,45.50
2018-01-30T08:23:31.858Z,45.40
2018-01-30T08:25:35.366Z,45.30
2018-01-30T08:27:39.207Z,45.20
2018-01-30T08:29:42.568Z,45.10
2018-01-30T08:31:46.709Z,45.10
2018-01-30T08:33:50.097Z,45.00
2018-01-30T08:35:53.211Z,45.00
2018-01-30T08:37:56.616Z,45.00
2018-01-30T08:40:00.001Z,45.00
2018-01-30T08:42:03.370Z,45.10
2018-01-30T08:44:06.729Z,45.10
2018-01-30T08:46:10.841Z,45.10
2018-01-30T08:48:14.985Z,45.20
2018-01-30T08:50:18.392Z,45.20
2018-01-30T08:52:21.764Z,45.20
2018-01-30T08:54:25.118Z,45.30
2018-01-30T08:56:28.473Z,45.90
2018-01-30T08:58:31.875Z,45.40
2018-01-30T09:00:35.259Z,45.50
2018-01-30T09:02:38.624Z,45.50
2018-01-30T09:04:42.000Z,45.60
2018-01-30T09:06:45.368Z,45.60
2018-01-30T09:08:49.736Z,45.80
2018-01-30T09:10:53.100Z,45.80
2018-01-30T09:12:56.473Z,45.80
2018-01-30T09:15:00.632Z,46.00
2018-01-30T09:17:03.996Z,46.00
2018-01-30T09:19:07.455Z,46.20
2018-01-30T09:21:10.826Z,46.20
2018-01-30T09:23:14.224Z,46.30
2018-01-30T09:25:17.637Z,46.30
2018-01-30T09:27:21.049Z,46.40
2018-01-30T09:29:24.324Z,46.50
2018-01-30T09:31:27.696Z,46.50
2018-01-30T09:33:31.850Z,46.70
2018-01-30T09:35:35.259Z,46.70
2018-01-30T09:37:38.673Z,46.70
2018-01-30T09:39:42.105Z,46.80
2018-01-30T09:41:46.241Z,47.50
2018-01-30T09:43:49.597Z,46.90
2018-01-30T09:45:53.775Z,47.10
2018-01-30T09:47:57.148Z,47.00
2018-01-30T09:50:01.303Z,47.20
2018-01-30T09:52:04.704Z,47.60
2018-01-30T09:54:08.111Z,47.30
2018-01-30T09:56:11.483Z,47.30
2018-01-30T09:58:15.681Z,47.30
2018-01-30T10:00:18.493Z,47.30
2018-01-30T10:02:21.875Z,47.20
2018-01-30T10:04:26.034Z,47.30
2018-01-30T10:06:29.433Z,47.30
2018-01-30T10:08:32.874Z,47.30
2018-01-30T10:10:37.020Z,47.20
2018-01-30T10:12:40.396Z,47.20
2018-01-30T10:14:43.900Z,47.20
2018-01-30T10:16:47.266Z,47.20
2018-01-30T10:18:51.420Z,47.10
2018-01-30T10:20:54.845Z,47.10
2018-01-30T10:22:58.215Z,47.10
2018-01-30T10:25:01.580Z,47.60
2018-01-30T10:27:04.961Z,47.10
2018-01-30T10:29:08.337Z,47.10
2018-01-30T10:31:11.722Z,47.10
2018-01-30T10:33:15.140Z,47.20
2018-01-30T10:35:18.571Z,47.20
2018-01-30T10:37:21.936Z,47.20
2018-01-30T10:39:25.330Z,47.20
2018-01-30T10:41:28.733Z,47.20
2018-01-30T10:43:32.132Z,47.20
2018-01-30T10:45:35.500Z,47.10
2018-01-30T10:47:38.992Z,47.00
2018-01-30T10:49:42.362Z,47.00
2018-01-30T10:51:46.588Z,46.80
2018-01-30T10:53:50.007Z,46.80
2018-01-30T10:55:53.385Z,46.80
2018-01-30T10:57:56.767Z,46.60
2018-01-30T11:00:00.125Z,46.60
2018-01-30T11:02:04.329Z,46.40
2018-01-30T11:04:07.780Z,46.40
2018-01-30T11:06:11.138Z,46.30
2018-01-30T11:08:15.320Z,46.30
2018-01-30T11:10:18.695Z,46.20
2018-01-30T11:12:22.150Z,46.10
2018-01-30T11:14:25.673Z,46.00
2018-01-30T11:16:29.197Z,46.00
2018-01-30T11:18:32.630Z,45.90
2018-01-30T11:20:35.996Z,45.80
2018-01-30T11:22:39.414Z,45.80
2018-01-30T11:24:43.597Z,45.70
2018-01-30T11:26:46.969Z,45.70
2018-01-30T11:28:50.389Z,45.60
2018-01-30T11:30:53.762Z,45.60
2018-01-30T11:32:57.162Z,45.70
2018-01-30T11:35:00.592Z,45.70
2018-01-30T11:37:03.966Z,45.80
2018-01-30T11:39:08.159Z,46.20
2018-01-30T11:41:11.576Z,46.20
2018-01-30T11:43:15.111Z,46.40
2018-01-30T11:45:18.500Z,46.80
2018-01-30T11:47:21.873Z,47.30
2018-01-30T11:49:25.232Z,47.70
2018-01-30T11:51:28.639Z,48.10
2018-01-30T11:53:32.804Z,48.80
2018-01-30T11:55:36.164Z,48.80
2018-01-30T11:57:39.540Z,49.00
2018-01-30T11:59:43.688Z,49.60
2018-01-30T12:01:47.064Z,49.60
2018-01-30T12:03:50.427Z,49.80
2018-01-30T12:05:54.590Z,50.20
2018-01-30T12:07:57.960Z,50.20
2018-01-30T12:10:01.318Z,50.40
2018-01-30T12:12:05.460Z,50.90
2018-01-30T12:14:08.913Z,50.80
2018-01-30T12:16:12.320Z,51.00
2018-01-30T12:18:16.241Z,51.20
2018-01-30T12:20:19.596Z,51.20
2018-01-30T12:22:22.995Z,51.30
2018-01-30T12:24:27.121Z,51.10
2018-01-30T12:26:31.261Z,51.70
2018-01-30T12:28:34.626Z,51.70
2018-01-30T12:30:38.761Z,52.00
2018-01-30T12:32:42.941Z,52.10
2018-01-30T12:34:47.109Z,52.50
2018-01-30T12:36:50.484Z,52.30
2018-01-30T12:38:53.886Z,52.40
2018-01-30T12:40:57.319Z,52.40
2018-01-30T12:43:01.449Z,52.70
2018-01-30T12:45:04.804Z,52.70
2018-01-30T12:47:08.245Z,52.70
2018-01-30T12:49:11.663Z,52.90
2018-01-30T12:51:15.054Z,53.00
2018-01-30T12:53:19.316Z,53.80
2018-01-30T12:55:23.610Z,53.30
2018-01-30T12:57:27.858Z,53.40
2018-01-30T12:59:31.256Z,53.40
2018-01-30T13:01:34.642Z,53.60
2018-01-30T13:03:38.040Z,53.60
2018-01-30T13:05:41.196Z,53.80
2018-01-30T13:07:44.593Z,53.80
2018-01-30T13:09:48.751Z,54.50
2018-01-30T13:11:52.133Z,54.10
2018-01-30T13:13:55.577Z,54.10
2018-01-30T13:15:58.981Z,54.20
2018-01-30T13:18:02.382Z,54.30
2018-01-30T13:20:06.558Z,54.30
2018-01-30T13:22:09.925Z,54.30
2018-01-30T13:24:13.317Z,54.40
2018-01-30T13:26:16.713Z,54.30
2018-01-30T13:28:20.085Z,54.30
2018-01-30T13:30:23.472Z,54.30
2018-01-30T13:32:26.944Z,54.40
2018-01-30T13:34:30.356Z,54.50
2018-01-30T13:36:33.741Z,54.50
2018-01-30T13:38:38.176Z,54.40
2018-01-30T13:40:41.717Z,54.50
2018-01-30T13:42:45.274Z,54.50
2018-01-30T13:44:48.628Z,54.60
2018-01-30T13:46:52.080Z,54.70
2018-01-30T13:48:55.521Z,54.70
2018-01-30T13:50:59.181Z,54.90
2018-01-30T13:53:03.463Z,55.20
2018-01-30T13:55:06.876Z,55.20
2018-01-30T13:57:10.434Z,55.20
2018-01-30T13:59:14.095Z,55.30
2018-01-30T14:01:17.592Z,55.30
2018-01-30T14:03:21.028Z,55.30
2018-01-30T14:05:24.685Z,56.00
2018-01-30T14:07:29.547Z,55.30
2018-01-30T14:09:33.524Z,55.20
2018-01-30T14:11:37.241Z,55.20
2018-01-30T14:13:41.436Z,55.10
2018-01-30T14:15:45.662Z,55.60
2018-01-30T14:17:49.394Z,55.60
2018-01-30T14:19:52.825Z,54.90
2018-01-30T14:21:55.814Z,54.90
2018-01-30T14:23:59.275Z,54.90
2018-01-30T14:26:02.745Z,54.80
2018-01-30T14:28:07.008Z,54.80
2018-01-30T14:30:10.429Z,54.70
2018-01-30T14:32:14.583Z,54.70
2018-01-30T14:34:17.970Z,54.60
2018-01-30T14:36:21.435Z,54.60
2018-01-30T14:38:24.800Z,54.60
2018-01-30T14:40:28.164Z,54.50
2018-01-30T14:42:32.479Z,54.20
2018-01-30T14:44:36.056Z,54.20
2018-01-30T14:46:39.496Z,54.30
2018-01-30T14:48:42.871Z,54.20
2018-01-30T14:50:46.230Z,54.20
2018-01-30T14:52:49.666Z,54.30
2018-01-30T14:54:53.045Z,54.40
2018-01-30T14:56:56.832Z,55.20
2018-01-30T14:59:00.197Z,54.50
2018-01-30T15:01:03.568Z,54.60
2018-01-30T15:03:07.764Z,54.70
2018-01-30T15:05:11.147Z,54.70
2018-01-30T15:07:14.937Z,54.70
2018-01-30T15:09:18.620Z,54.80
2018-01-30T15:11:21.977Z,54.80
2018-01-30T15:13:26.134Z,54.90
2018-01-30T15:15:29.513Z,54.80
2018-01-30T15:17:32.917Z,54.80
2018-01-30T15:19:36.305Z,54.90
2018-01-30T15:21:39.716Z,54.90
2018-01-30T15:23:43.168Z,54.90
2018-01-30T15:25:46.527Z,54.90
2018-01-30T15:27:50.768Z,55.00
2018-01-30T15:29:54.166Z,55.00
2018-01-30T15:31:57.529Z,55.00
2018-01-30T15:34:00.954Z,55.00
2018-01-30T15:36:04.063Z,55.00
2018-01-30T15:38:07.477Z,55.10
2018-01-30T15:40:10.932Z,55.20
2018-01-30T15:42:14.377Z,55.20
2018-01-30T15:44:17.818Z,55.30
2018-01-30T15:46:21.231Z,55.40
2018-01-30T15:48:24.658Z,55.40
2018-01-30T15:50:28.062Z,55.50
2018-01-30T15:52:32.274Z,55.10
2018-01-30T15:54:35.700Z,55.60
2018-01-30T15:56:39.107Z,55.70
2018-01-30T15:58:42.522Z,55.70
2018-01-30T16:00:45.909Z,55.80
2018-01-30T16:02:49.282Z,55.80
2018-01-30T16:04:52.776Z,55.80
2018-01-30T16:06:56.267Z,56.10
2018-01-30T16:09:00.080Z,56.10
2018-01-30T16:11:03.482Z,56.30
2018-01-30T16:13:06.858Z,56.30
2018-01-30T16:15:10.243Z,56.40
2018-01-30T16:17:13.717Z,56.50
2018-01-30T16:19:17.245Z,56.50
2018-01-30T16:21:20.661Z,56.40
2018-01-30T16:23:24.920Z,56.50
2018-01-30T16:25:29.394Z,56.40
2018-01-30T16:27:32.861Z,56.40
2018-01-30T16:29:36.400Z,56.40
2018-01-30T16:31:40.577Z,56.50
2018-01-30T16:33:44.176Z,56.50
2018-01-30T16:35:47.594Z,56.40
2018-01-30T16:37:50.985Z,56.40
2018-01-30T16:39:54.450Z,56.50
2018-01-30T16:41:57.867Z,56.30
2018-01-30T16:44:01.288Z,56.30
2018-01-30T16:46:05.584Z,56.40
2018-01-30T16:48:09.496Z,56.40
2018-01-30T16:50:12.957Z,56.50
2018-01-30T16:52:16.426Z,56.40
2018-01-30T16:54:19.991Z,56.50
2018-01-30T16:56:24.157Z,56.60
2018-01-30T16:58:27.563Z,56.60
2018-01-30T17:00:30.976Z,56.60
2018-01-30T17:02:34.364Z,57.00
2018-01-30T17:04:37.773Z,56.90
2018-01-30T17:06:41.199Z,56.70
2018-01-30T17:08:44.636Z,56.70
2018-01-30T17:10:48.820Z,56.70
2018-01-30T17:12:52.166Z,56.70
2018-01-30T17:14:55.571Z,56.70
2018-01-30T17:16:58.973Z,56.50
2018-01-30T17:19:02.438Z,56.40
2018-01-30T17:21:06.594Z,56.20
2018-01-30T17:23:09.986Z,56.20
2018-01-30T17:25:13.413Z,56.20
2018-01-30T17:27:16.785Z,55.90
2018-01-30T17:29:20.399Z,55.80
2018-01-30T17:31:23.869Z,55.70
2018-01-30T17:33:27.314Z,55.60
2018-01-30T17:35:31.610Z,55.80
2018-01-30T17:37:35.021Z,55.80
2018-01-30T17:39:39.356Z,55.70
2018-01-30T17:41:42.873Z,55.70
2018-01-30T17:43:46.279Z,55.60
2018-01-30T17:45:49.731Z,55.50
2018-01-30T17:47:53.133Z,55.50
2018-01-30T17:49:56.826Z,55.50
2018-01-30T17:52:00.430Z,55.60
2018-01-30T17:54:03.818Z,55.40
2018-01-30T17:56:07.201Z,55.50
2018-01-30T17:58:10.438Z,55.50
2018-01-30T18:00:13.877Z,55.50
2018-01-30T18:02:18.068Z,55.50
2018-01-30T18:04:21.522Z,55.40
2018-01-30T18:06:24.933Z,55.50
2018-01-30T18:08:28.298Z,55.50
2018-01-30T18:10:31.687Z,55.40
2018-01-30T18:12:35.439Z,55.30
2018-01-30T18:14:38.911Z,55.50
2018-01-30T18:16:42.381Z,55.40
2018-01-30T18:18:45.816Z,55.40
2018-01-30T18:20:49.340Z,55.50
2018-01-30T18:22:52.972Z,55.50
2018-01-30T18:24:58.058Z,55.50
2018-01-30T18:27:01.608Z,55.30
2018-01-30T18:29:05.209Z,55.30
2018-01-30T18:31:08.706Z,55.30
2018-01-30T18:33:12.918Z,55.30
2018-01-30T18:35:16.290Z,55.20
2018-01-30T18:37:19.680Z,55.20
2018-01-30T18:39:23.400Z,55.10
2018-01-30T18:41:27.117Z,55.10
2018-01-30T18:43:30.743Z,55.10
2018-01-30T18:45:34.201Z,55.10
2018-01-30T18:47:37.818Z,55.10
2018-01-30T18:49:41.288Z,55.10
2018-01-30T18:51:44.811Z,55.00
2018-01-30T18:53:49.100Z,55.10
2018-01-30T18:55:52.543Z,55.00
2018-01-30T18:57:56.104Z,55.00
2018-01-30T19:00:00.502Z,55.20
2018-01-30T19:02:04.000Z,55.20
2018-01-30T19:04:08.315Z,55.40
2018-01-30T19:06:11.841Z,55.50
2018-01-30T19:08:17.263Z,55.50
2018-01-30T19:10:21.684Z,55.50
2018-01-30T19:12:26.045Z,55.50
2018-01-30T19:14:29.600Z,55.50
2018-01-30T19:16:33.996Z,55.90
2018-01-30T19:18:37.548Z,55.90
2018-01-30T19:20:41.116Z,55.70
2018-01-30T19:22:45.497Z,55.80
2018-01-30T19:24:49.092Z,55.70
2018-01-30T19:26:52.600Z,55.80
2018-01-30T19:28:56.185Z,55.70
2018-01-30T19:30:59.827Z,56.00
2018-01-30T19:33:04.153Z,56.20
2018-01-30T19:35:07.718Z,56.30
2018-01-30T19:37:12.079Z,56.30
2018-01-30T19:39:15.659Z,56.30
2018-01-30T19:41:19.496Z,56.30
2018-01-30T19:43:23.426Z,56.40
2018-01-30T19:45:27.041Z,56.30
2018-01-30T19:47:31.373Z,56.10
2018-01-30T19:49:34.803Z,56.10
2018-01-30T19:51:38.252Z,56.00
2018-01-30T19:53:42.400Z,55.80
2018-01-30T19:55:45.774Z,55.80
2018-01-30T19:57:49.161Z,55.70
2018-01-30T19:59:52.580Z,55.60
2018-01-30T20:01:56.060Z,55.60
2018-01-30T20:03:59.518Z,55.60
2018-01-30T20:06:03.770Z,55.20
2018-01-30T20:08:07.214Z,55.20
2018-01-30T20:10:10.932Z,55.00
2018-01-30T20:12:15.142Z,54.90
2018-01-30T20:14:18.755Z,54.80
2018-01-30T20:16:22.931Z,55.20
2018-01-30T20:18:27.554Z,55.20
2018-01-30T20:20:30.742Z,55.20
2018-01-30T20:22:34.132Z,55.10
2018-01-30T20:24:39.630Z,55.00
2018-01-30T20:26:44.998Z,55.00
2018-01-30T20:28:48.412Z,54.80
2018-01-30T20:30:51.781Z,54.80
2018-01-30T20:32:55.141Z,54.80
2018-01-30T20:34:58.570Z,54.70
2018-01-30T20:37:01.825Z,54.70
2018-01-30T20:39:05.698Z,54.60
2018-01-30T20:41:09.952Z,54.50
2018-01-30T20:43:14.068Z,54.50
2018-01-30T20:45:18.246Z,54.40
2018-01-30T20:47:22.807Z,54.40
2018-01-30T20:49:27.104Z,54.20
2018-01-30T20:51:32.067Z,54.30
2018-01-30T20:53:36.874Z,54.30
2018-01-30T20:55:40.882Z,54.30
2018-01-30T20:57:44.300Z,54.30
2018-01-30T20:59:47.961Z,54.40
2018-01-30T21:01:52.958Z,54.40
2018-01-30T21:03:57.972Z,54.30
2018-01-30T21:06:03.185Z,54.20
2018-01-30T21:08:09.272Z,54.20
2018-01-30T21:10:14.587Z,54.20
2018-01-30T21:12:19.583Z,54.20
2018-01-30T21:14:25.254Z,54.00
2018-01-30T21:16:28.913Z,54.00
2018-01-30T21:18:34.412Z,54.00
2018-01-30T21:20:40.228Z,54.10
2018-01-30T21:22:44.521Z,54.00
2018-01-30T21:24:47.926Z,54.10
2018-01-30T21:26:51.429Z,54.10
2018-01-30T21:28:55.365Z,54.10
2018-01-30T21:30:58.757Z,54.00
2018-01-30T21:33:02.125Z,54.80
2018-01-30T21:35:08.978Z,54.20
2018-01-30T21:37:13.196Z,54.10
2018-01-30T21:39:18.145Z,54.10
2018-01-30T21:41:22.650Z,54.20
2018-01-30T21:43:26.519Z,54.20
2018-01-30T21:45:30.704Z,54.20
2018-01-30T21:47:35.249Z,54.40
2018-01-30T21:49:38.876Z,54.20
2018-01-30T21:51:42.249Z,54.20
2018-01-30T21:53:45.719Z,54.20
2018-01-30T21:55:49.125Z,54.30
2018-01-30T21:57:53.819Z,54.20
2018-01-30T21:59:57.255Z,54.20
2018-01-30T22:02:00.514Z,54.20
2018-01-30T22:04:03.911Z,54.30
2018-01-30T22:06:07.267Z,54.30
2018-01-30T22:08:10.428Z,54.20
2018-01-30T22:10:13.806Z,54.20
2018-01-30T22:12:17.176Z,54.20
2018-01-30T22:14:21.305Z,54.30
2018-01-30T22:16:24.739Z,54.20
2018-01-30T22:18:28.128Z,54.20
2018-01-30T22:20:31.534Z,54.30
2018-01-30T22:22:34.959Z,54.30
2018-01-30T22:24:39.124Z,54.30
2018-01-30T22:26:42.689Z,54.30
2018-01-30T22:28:46.045Z,54.30
2018-01-30T22:30:50.171Z,54.40
2018-01-30T22:32:53.599Z,54.40
2018-01-30T22:34:57.089Z,54.30
2018-01-30T22:37:00.557Z,54.30
2018-01-30T22:39:03.550Z,54.40
2018-01-30T22:41:06.990Z,54.50
2018-01-30T22:43:10.566Z,54.50
2018-01-30T22:45:14.020Z,54.50
